createdAt,value
2019-04-28T00:00:38.664Z,93.16
2019-04-28T00:01:38.556Z,92.24
2019-04-28T00:02:38.654Z,92.24
2019-04-28T00:03:38.533Z,92.14
2019-04-28T00:04:38.575Z,91.99
2019-04-28T00:05:38.526Z,91.42
2019-04-28T00:06:38.578Z,92.03
2019-04-28T00:07:38.487Z,92.03
2019-04-28T00:08:38.591Z,91.93
2019-04-28T00:09:38.466Z,92.20
2019-04-28T00:10:38.525Z,92.44
2019-04-28T00:11:38.443Z,93.27
2019-04-28T00:12:38.515Z,92.34
2019-04-28T00:13:38.429Z,91.83
2019-04-28T00:14:38.437Z,91.83
2019-04-28T00:15:38.412Z,91.93
2019-04-28T00:16:38.442Z,92.14
2019-04-28T00:17:38.376Z,91.83
2019-04-28T00:18:38.458Z,91.62
2019-04-28T00:19:38.359Z,92.03
2019-04-28T00:20:38.389Z,91.93
2019-04-28T00:21:38.333Z,92.03
2019-04-28T00:22:38.381Z,91.62
2019-04-28T00:23:38.315Z,92.03
2019-04-28T00:24:38.396Z,92.14
2019-04-28T00:25:38.300Z,91.93
2019-04-28T00:26:38.307Z,91.46
2019-04-28T00:27:38.268Z,92.08
2019-04-28T00:28:38.318Z,91.83
2019-04-28T00:29:41.199Z,92.24
2019-04-28T00:30:39.277Z,92.49
2019-04-28T00:31:38.223Z,91.87
2019-04-28T00:32:38.244Z,91.77
2019-04-28T00:33:38.200Z,91.87
2019-04-28T00:34:38.257Z,91.97
2019-04-28T00:35:38.203Z,91.87
2019-04-28T00:36:38.273Z,91.97
2019-04-28T00:37:38.158Z,92.49
2019-04-28T00:38:45.143Z,93.41
2019-04-28T00:39:38.133Z,93.31
2019-04-28T00:40:41.377Z,92.94
2019-04-28T00:41:38.113Z,93.05
2019-04-28T00:42:39.132Z,93.35
2019-04-28T00:43:38.092Z,93.46
2019-04-28T00:44:38.119Z,93.56
2019-04-28T00:45:38.079Z,93.66
2019-04-28T00:46:38.134Z,94.12
2019-04-28T00:47:38.047Z,94.28
2019-04-28T00:48:38.149Z,94.64
2019-04-28T00:49:38.025Z,94.64
2019-04-28T00:50:38.084Z,94.57
2019-04-28T00:51:38.010Z,95.25
2019-04-28T00:52:38.075Z,94.99
2019-04-28T00:53:37.981Z,95.15
2019-04-28T00:54:37.992Z,95.50
2019-04-28T00:55:37.957Z,95.25
2019-04-28T00:56:38.024Z,95.71
2019-04-28T00:57:37.936Z,95.92
2019-04-28T00:58:38.013Z,95.71
2019-04-28T00:59:50.914Z,96.02
2019-04-28T01:00:38.909Z,96.02
2019-04-28T01:01:37.913Z,96.23
2019-04-28T01:02:37.884Z,96.02
2019-04-28T01:03:37.948Z,96.02
2019-04-28T01:04:37.863Z,96.23
2019-04-28T01:05:37.957Z,95.96
2019-04-28T01:06:37.848Z,96.17
2019-04-28T01:07:37.867Z,96.48
2019-04-28T01:08:37.814Z,97.09
2019-04-28T01:09:37.885Z,96.89
2019-04-28T01:10:37.791Z,96.89
2019-04-28T01:11:37.820Z,97.09
2019-04-28T01:12:37.769Z,96.58
2019-04-28T01:13:37.809Z,96.06
2019-04-28T01:14:37.747Z,96.48
2019-04-28T01:15:39.534Z,96.48
2019-04-28T01:16:37.740Z,95.86
2019-04-28T01:17:39.641Z,96.48
2019-04-28T01:18:37.704Z,97.09
2019-04-28T01:19:39.659Z,96.99
2019-04-28T01:20:39.494Z,96.06
2019-04-28T01:21:37.787Z,95.86
2019-04-28T01:22:37.664Z,96.17
2019-04-28T01:23:40.231Z,95.86
2019-04-28T01:24:39.635Z,95.45
2019-04-28T01:25:44.649Z,95.80
2019-04-28T01:26:39.210Z,96.06
2019-04-28T01:27:40.187Z,96.52
2019-04-28T01:28:37.592Z,96.62
2019-04-28T01:29:37.612Z,96.99
2019-04-28T01:30:37.570Z,96.69
2019-04-28T01:31:39.535Z,97.09
2019-04-28T01:32:37.549Z,96.58
2019-04-28T01:33:37.638Z,96.48
2019-04-28T01:34:37.526Z,96.62
2019-04-28T01:35:39.184Z,97.20
2019-04-28T01:36:37.514Z,96.58
2019-04-28T01:37:37.564Z,96.73
2019-04-28T01:38:37.481Z,96.94
2019-04-28T01:39:41.023Z,96.83
2019-04-28T01:40:37.461Z,97.14
2019-04-28T01:41:39.567Z,96.94
2019-04-28T01:42:37.437Z,96.73
2019-04-28T01:43:37.500Z,96.83
2019-04-28T01:44:39.345Z,96.88
2019-04-28T01:45:37.518Z,96.94
2019-04-28T01:46:37.404Z,97.25
2019-04-28T01:47:37.430Z,97.34
2019-04-28T01:48:37.370Z,96.73
2019-04-28T01:49:37.442Z,96.83
2019-04-28T01:50:37.352Z,97.14
2019-04-28T01:51:37.376Z,96.94
2019-04-28T01:52:37.326Z,96.83
2019-04-28T01:53:37.368Z,96.94
2019-04-28T01:54:37.303Z,97.14
2019-04-28T01:55:37.379Z,96.94
2019-04-28T01:56:37.296Z,97.34
2019-04-28T01:57:37.290Z,97.04
2019-04-28T01:58:37.259Z,96.94
2019-04-28T01:59:37.305Z,96.73
2019-04-28T02:00:37.241Z,97.25
2019-04-28T02:01:37.342Z,97.04
2019-04-28T02:02:37.220Z,97.29
2019-04-28T02:03:37.249Z,97.19
2019-04-28T02:04:37.198Z,96.94
2019-04-28T02:05:37.241Z,96.88
2019-04-28T02:06:37.188Z,97.29
2019-04-28T02:07:45.141Z,97.19
2019-04-28T02:08:37.150Z,97.39
2019-04-28T02:09:45.154Z,97.50
2019-04-28T02:10:37.128Z,97.29
2019-04-28T02:11:41.162Z,97.29
2019-04-28T02:12:37.106Z,97.29
2019-04-28T02:13:39.803Z,98.37
2019-04-28T02:14:37.084Z,97.96
2019-04-28T02:15:37.109Z,97.71
2019-04-28T02:16:37.087Z,97.96
2019-04-28T02:17:37.122Z,97.85
2019-04-28T02:18:37.040Z,98.16
2019-04-28T02:19:37.136Z,97.96
2019-04-28T02:20:37.019Z,97.89
2019-04-28T02:21:37.045Z,98.72
2019-04-28T02:22:37.007Z,98.72
2019-04-28T02:23:37.074Z,98.37
2019-04-28T02:24:36.978Z,98.10
2019-04-28T02:25:37.075Z,98.52
2019-04-28T02:26:36.952Z,98.68
2019-04-28T02:27:37.011Z,98.72
2019-04-28T02:28:36.929Z,98.83
2019-04-28T02:29:37.005Z,98.83
2019-04-28T02:30:45.310Z,98.72
2019-04-28T02:31:37.896Z,98.41
2019-04-28T02:32:36.943Z,98.83
2019-04-28T02:33:36.876Z,99.34
2019-04-28T02:34:36.932Z,98.83
2019-04-28T02:35:36.897Z,98.93
2019-04-28T02:36:36.951Z,98.93
2019-04-28T02:37:36.859Z,99.24
2019-04-28T02:38:36.856Z,99.14
2019-04-28T02:39:36.813Z,99.76
2019-04-28T02:40:36.870Z,99.55
2019-04-28T02:41:36.787Z,99.55
2019-04-28T02:42:36.805Z,99.55
2019-04-28T02:43:36.777Z,99.55
2019-04-28T02:44:36.793Z,99.44
2019-04-28T02:45:36.750Z,99.34
2019-04-28T02:46:36.815Z,99.76
2019-04-28T02:47:36.737Z,98.99
2019-04-28T02:48:36.834Z,99.40
2019-04-28T02:49:36.702Z,98.68
2019-04-28T02:50:36.735Z,98.57
2019-04-28T02:51:36.681Z,98.57
2019-04-28T02:52:41.451Z,98.83
2019-04-28T02:53:36.658Z,98.27
2019-04-28T02:54:44.650Z,98.21
2019-04-28T02:55:36.636Z,98.10
2019-04-28T02:56:52.649Z,98.27
2019-04-28T02:57:36.633Z,98.37
2019-04-28T02:58:41.331Z,98.16
2019-04-28T02:59:36.593Z,98.06
2019-04-28T03:00:36.601Z,97.96
2019-04-28T03:01:36.571Z,97.75
2019-04-28T03:02:36.636Z,97.13
2019-04-28T03:03:36.550Z,97.23
2019-04-28T03:04:36.625Z,97.29
2019-04-28T03:05:36.531Z,96.88
2019-04-28T03:06:36.539Z,97.02
2019-04-28T03:07:36.522Z,97.13
2019-04-28T03:08:36.565Z,97.23
2019-04-28T03:09:36.488Z,96.88
2019-04-28T03:10:36.567Z,97.08
2019-04-28T03:11:36.477Z,96.77
2019-04-28T03:12:36.503Z,96.36
2019-04-28T03:13:36.442Z,96.26
2019-04-28T03:14:36.491Z,96.20
2019-04-28T03:15:36.421Z,96.15
2019-04-28T03:16:36.504Z,96.20
2019-04-28T03:17:36.410Z,95.74
2019-04-28T03:18:36.430Z,96.26
2019-04-28T03:19:36.376Z,96.26
2019-04-28T03:20:36.426Z,96.15
2019-04-28T03:21:36.354Z,96.15
2019-04-28T03:22:36.470Z,96.20
2019-04-28T03:23:36.332Z,96.41
2019-04-28T03:24:36.352Z,95.99
2019-04-28T03:25:36.308Z,96.61
2019-04-28T03:26:36.372Z,97.23
2019-04-28T03:27:36.314Z,97.02
2019-04-28T03:28:36.382Z,97.02
2019-04-28T03:29:36.268Z,97.23
2019-04-28T03:30:36.290Z,96.72
2019-04-28T03:32:01.204Z,96.51
2019-04-28T03:32:47.437Z,97.13
2019-04-28T03:33:43.533Z,97.33
2019-04-28T03:34:37.209Z,97.23
2019-04-28T03:35:36.226Z,97.33
2019-04-28T03:36:36.189Z,97.23
2019-04-28T03:37:37.288Z,96.82
2019-04-28T03:38:36.184Z,96.92
2019-04-28T03:39:53.156Z,97.02
2019-04-28T03:40:36.142Z,97.02
2019-04-28T03:41:44.150Z,96.92
2019-04-28T03:42:36.139Z,97.44
2019-04-28T03:43:37.119Z,96.92
2019-04-28T03:44:36.100Z,97.33
2019-04-28T03:45:37.114Z,97.23
2019-04-28T03:46:36.077Z,97.38
2019-04-28T03:47:36.128Z,97.38
2019-04-28T03:48:36.054Z,97.17
2019-04-28T03:49:36.120Z,97.07
2019-04-28T03:50:36.033Z,97.89
2019-04-28T03:51:36.129Z,97.23
2019-04-28T03:52:36.011Z,98.27
2019-04-28T03:53:36.069Z,98.27
2019-04-28T03:54:35.990Z,98.37
2019-04-28T03:55:36.055Z,97.54
2019-04-28T03:56:35.975Z,97.75
2019-04-28T03:57:36.069Z,98.37
2019-04-28T03:58:35.957Z,97.75
2019-04-28T03:59:35.984Z,97.85
2019-04-28T04:00:35.922Z,97.71
2019-04-28T04:01:52.163Z,97.08
2019-04-28T04:02:36.900Z,97.39
2019-04-28T04:03:35.932Z,97.29
2019-04-28T04:04:35.878Z,97.08
2019-04-28T04:05:35.921Z,97.29
2019-04-28T04:06:35.857Z,97.39
2019-04-28T04:07:35.935Z,97.29
2019-04-28T04:08:35.849Z,97.60
2019-04-28T04:09:35.842Z,97.29
2019-04-28T04:10:35.810Z,97.23
2019-04-28T04:11:35.857Z,97.13
2019-04-28T04:12:35.794Z,97.23
2019-04-28T04:13:35.897Z,97.13
2019-04-28T04:14:35.772Z,97.23
2019-04-28T04:15:35.781Z,97.23
2019-04-28T04:16:35.745Z,97.33
2019-04-28T04:17:35.795Z,97.54
2019-04-28T04:18:35.736Z,97.44
2019-04-28T04:19:35.808Z,97.96
2019-04-28T04:20:35.700Z,97.96
2019-04-28T04:21:35.725Z,98.68
2019-04-28T04:22:35.678Z,98.27
2019-04-28T04:23:37.725Z,98.53
2019-04-28T04:24:35.660Z,98.22
2019-04-28T04:25:36.671Z,98.32
2019-04-28T04:26:35.642Z,98.63
2019-04-28T04:27:36.696Z,98.43
2019-04-28T04:28:35.626Z,98.32
2019-04-28T04:29:43.756Z,97.91
2019-04-28T04:30:35.598Z,98.57
2019-04-28T04:31:35.689Z,98.53
2019-04-28T04:32:35.568Z,98.74
2019-04-28T04:33:35.626Z,98.63
2019-04-28T04:34:35.545Z,98.63
2019-04-28T04:35:35.616Z,98.53
2019-04-28T04:36:35.535Z,97.81
2019-04-28T04:37:35.628Z,97.66
2019-04-28T04:38:35.518Z,97.66
2019-04-28T04:39:35.640Z,97.45
2019-04-28T04:40:35.482Z,97.25
2019-04-28T04:41:35.473Z,97.71
2019-04-28T04:42:35.456Z,97.39
2019-04-28T04:43:35.489Z,97.71
2019-04-28T04:44:38.000Z,97.39
2019-04-28T04:45:36.505Z,97.71
2019-04-28T04:46:35.413Z,97.19
2019-04-28T04:47:35.494Z,97.60
2019-04-28T04:48:35.405Z,97.81
2019-04-28T04:49:35.405Z,98.01
2019-04-28T04:50:35.372Z,98.01
2019-04-28T04:51:35.360Z,97.97
2019-04-28T04:52:35.350Z,97.86
2019-04-28T04:53:35.454Z,98.07
2019-04-28T04:54:36.830Z,97.97
2019-04-28T04:55:35.340Z,98.07
2019-04-28T04:56:35.301Z,97.97
2019-04-28T04:57:35.352Z,98.18
2019-04-28T04:58:35.295Z,98.07
2019-04-28T04:59:35.369Z,97.66
2019-04-28T05:00:35.259Z,98.07
2019-04-28T05:01:35.279Z,98.07
2019-04-28T05:02:35.234Z,97.86
2019-04-28T05:03:35.324Z,97.86
2019-04-28T05:04:35.211Z,97.86
2019-04-28T05:05:35.305Z,97.61
2019-04-28T05:06:35.193Z,97.61
2019-04-28T05:07:35.223Z,97.20
2019-04-28T05:08:35.206Z,97.09
2019-04-28T05:09:59.541Z,96.99
2019-04-28T05:10:35.147Z,96.95
2019-04-28T05:11:44.152Z,96.84
2019-04-28T05:12:35.125Z,97.05
2019-04-28T05:13:35.154Z,96.23
2019-04-28T05:14:35.116Z,96.23
2019-04-28T05:15:37.117Z,95.92
2019-04-28T05:16:35.079Z,96.33
2019-04-28T05:17:36.104Z,95.50
2019-04-28T05:18:35.056Z,95.40
2019-04-28T05:19:35.122Z,95.36
2019-04-28T05:20:35.032Z,95.46
2019-04-28T05:21:35.109Z,95.56
2019-04-28T05:22:35.012Z,95.56
2019-04-28T05:23:35.022Z,95.36
2019-04-28T05:24:35.005Z,95.05
2019-04-28T05:25:35.032Z,94.84
2019-04-28T05:26:34.969Z,95.31
2019-04-28T05:27:35.046Z,94.80
2019-04-28T05:28:36.850Z,94.70
2019-04-28T05:29:36.007Z,94.49
2019-04-28T05:30:38.894Z,94.38
2019-04-28T05:31:35.995Z,94.08
2019-04-28T05:32:43.210Z,94.13
2019-04-28T05:33:35.886Z,94.03
2019-04-28T05:34:34.918Z,93.73
2019-04-28T05:35:35.789Z,93.21
2019-04-28T05:36:41.184Z,93.21
2019-04-28T05:37:35.845Z,92.90
2019-04-28T05:38:34.920Z,93.06
2019-04-28T05:39:37.699Z,93.41
2019-04-28T05:40:34.830Z,93.37
2019-04-28T05:41:34.800Z,92.34
2019-04-28T05:42:34.847Z,92.34
2019-04-28T05:43:34.782Z,92.55
2019-04-28T05:44:37.491Z,92.14
2019-04-28T05:45:34.762Z,91.93
2019-04-28T05:46:34.766Z,91.72
2019-04-28T05:47:34.733Z,91.93
2019-04-28T05:48:34.779Z,92.03
2019-04-28T05:49:34.729Z,91.62
2019-04-28T05:50:34.794Z,91.93
2019-04-28T05:51:34.695Z,92.14
2019-04-28T05:52:34.705Z,92.34
2019-04-28T05:53:34.668Z,91.93
2019-04-28T05:54:40.339Z,91.83
2019-04-28T05:55:34.645Z,91.58
2019-04-28T05:56:35.655Z,91.89
2019-04-28T05:57:34.625Z,92.10
2019-04-28T05:58:34.648Z,91.89
2019-04-28T05:59:34.615Z,91.47
2019-04-28T06:00:51.146Z,91.27
2019-04-28T06:01:34.579Z,91.06
2019-04-28T06:02:35.599Z,91.33
2019-04-28T06:03:34.565Z,91.58
2019-04-28T06:04:34.610Z,90.96
2019-04-28T06:05:34.535Z,91.02
2019-04-28T06:06:34.599Z,91.33
2019-04-28T06:07:34.514Z,91.33
2019-04-28T06:08:34.611Z,91.23
2019-04-28T06:09:34.511Z,90.81
2019-04-28T06:10:34.525Z,91.44
2019-04-28T06:11:34.469Z,91.53
2019-04-28T06:12:34.547Z,91.13
2019-04-28T06:13:34.455Z,91.85
2019-04-28T06:14:34.475Z,90.92
2019-04-28T06:15:34.424Z,91.19
2019-04-28T06:16:34.459Z,91.19
2019-04-28T06:17:34.402Z,91.60
2019-04-28T06:18:34.474Z,91.29
2019-04-28T06:19:34.394Z,90.53
2019-04-28T06:20:34.385Z,90.47
2019-04-28T06:21:34.357Z,90.36
2019-04-28T06:22:34.401Z,90.83
2019-04-28T06:23:34.339Z,89.70
2019-04-28T06:24:34.441Z,90.22
2019-04-28T06:25:34.334Z,90.12
2019-04-28T06:26:34.326Z,89.87
2019-04-28T06:27:34.291Z,89.36
2019-04-28T06:28:34.337Z,89.25
2019-04-28T06:29:34.287Z,89.15
2019-04-28T06:30:34.355Z,89.76
2019-04-28T06:31:34.245Z,88.64
2019-04-28T06:32:34.263Z,88.43
2019-04-28T06:33:34.224Z,88.53
2019-04-28T06:34:34.316Z,88.74
2019-04-28T06:35:34.200Z,88.64
2019-04-28T06:36:34.294Z,88.43
2019-04-28T06:37:34.178Z,88.80
2019-04-28T06:38:42.193Z,88.08
2019-04-28T06:39:34.187Z,88.29
2019-04-28T06:40:36.313Z,87.53
2019-04-28T06:41:34.134Z,87.57
2019-04-28T06:42:35.149Z,87.37
2019-04-28T06:43:34.113Z,87.57
2019-04-28T06:44:34.140Z,87.57
2019-04-28T06:45:34.106Z,87.77
2019-04-28T06:46:34.151Z,87.98
2019-04-28T06:47:34.070Z,87.57
2019-04-28T06:48:34.064Z,87.46
2019-04-28T06:49:34.044Z,87.88
2019-04-28T06:50:34.110Z,87.57
2019-04-28T06:51:34.023Z,87.05
2019-04-28T06:52:34.093Z,87.26
2019-04-28T06:53:34.001Z,88.08
2019-04-28T06:54:34.002Z,88.35
2019-04-28T06:55:33.993Z,87.88
2019-04-28T06:56:34.016Z,87.67
2019-04-28T06:57:33.956Z,87.32
2019-04-28T06:58:34.036Z,87.37
2019-04-28T06:59:33.939Z,87.43
2019-04-28T07:00:33.972Z,87.46
2019-04-28T07:01:33.912Z,87.67
2019-04-28T07:02:33.962Z,87.63
2019-04-28T07:03:33.888Z,87.22
2019-04-28T07:04:33.969Z,86.71
2019-04-28T07:05:33.879Z,87.22
2019-04-28T07:06:33.881Z,87.22
2019-04-28T07:07:33.842Z,86.71
2019-04-28T07:08:33.896Z,86.25
2019-04-28T07:09:33.821Z,86.15
2019-04-28T07:10:33.837Z,85.91
2019-04-28T07:11:33.798Z,86.01
2019-04-28T07:12:33.791Z,85.60
2019-04-28T07:13:33.777Z,85.39
2019-04-28T07:14:33.835Z,85.60
2019-04-28T07:15:33.791Z,85.39
2019-04-28T07:16:33.848Z,85.91
2019-04-28T07:17:33.733Z,85.09
2019-04-28T07:18:33.756Z,85.09
2019-04-28T07:19:33.710Z,84.99
2019-04-28T07:20:33.804Z,84.84
2019-04-28T07:21:33.690Z,84.99
2019-04-28T07:22:33.786Z,84.68
2019-04-28T07:23:33.668Z,85.19
2019-04-28T07:24:48.650Z,84.99
2019-04-28T07:25:33.658Z,84.78
2019-04-28T07:27:09.659Z,84.68
2019-04-28T07:27:33.628Z,84.33
2019-04-28T07:28:34.648Z,84.74
2019-04-28T07:29:33.602Z,83.51
2019-04-28T07:30:33.669Z,83.34
2019-04-28T07:31:33.578Z,83.72
2019-04-28T07:32:33.655Z,84.12
2019-04-28T07:33:36.242Z,84.12
2019-04-28T07:34:33.562Z,83.72
2019-04-28T07:35:33.548Z,83.58
2019-04-28T07:36:33.577Z,82.65
2019-04-28T07:37:33.513Z,83.00
2019-04-28T07:38:33.591Z,83.37
2019-04-28T07:39:33.495Z,82.55
2019-04-28T07:40:33.534Z,82.55
2019-04-28T07:41:33.467Z,83.06
2019-04-28T07:42:33.518Z,83.03
2019-04-28T07:43:33.447Z,82.41
2019-04-28T07:44:33.540Z,81.59
2019-04-28T07:45:33.439Z,81.79
2019-04-28T07:46:33.445Z,81.65
2019-04-28T07:47:33.403Z,82.07
2019-04-28T07:48:33.455Z,79.91
2019-04-28T07:49:33.385Z,79.82
2019-04-28T07:50:33.556Z,80.63
2019-04-28T07:51:33.356Z,80.94
2019-04-28T07:52:33.382Z,79.61
2019-04-28T07:53:33.333Z,78.79
2019-04-28T07:54:33.391Z,78.89
2019-04-28T07:55:33.331Z,79.20
2019-04-28T07:56:33.404Z,79.78
2019-04-28T07:57:33.289Z,81.17
2019-04-28T07:58:33.318Z,78.61
2019-04-28T07:59:33.267Z,79.53
2019-04-28T08:00:33.363Z,80.21
2019-04-28T08:01:33.243Z,78.17
2019-04-28T08:02:33.347Z,78.38
2019-04-28T08:03:33.221Z,77.97
2019-04-28T08:04:33.258Z,77.49
2019-04-28T08:05:33.197Z,78.31
2019-04-28T08:06:33.303Z,78.31
2019-04-28T08:07:33.175Z,77.39
2019-04-28T08:08:40.144Z,77.04
2019-04-28T08:09:33.152Z,76.23
2019-04-28T08:10:48.146Z,76.33
2019-04-28T08:11:33.145Z,76.23
2019-04-28T08:12:35.154Z,76.60
2019-04-28T08:13:33.112Z,75.48
2019-04-28T08:14:33.122Z,74.66
2019-04-28T08:15:33.088Z,75.00
2019-04-28T08:16:33.168Z,72.75
2019-04-28T08:17:33.065Z,73.33
2019-04-28T08:18:33.147Z,71.94
2019-04-28T08:19:33.043Z,70.81
2019-04-28T08:20:33.059Z,72.00
2019-04-28T08:21:33.034Z,72.11
2019-04-28T08:22:33.073Z,71.67
2019-04-28T08:23:32.998Z,71.36
2019-04-28T08:24:33.086Z,71.87
2019-04-28T08:25:32.975Z,70.95
2019-04-28T08:26:33.029Z,72.28
2019-04-28T08:27:32.955Z,72.08
2019-04-28T08:28:33.009Z,70.44
2019-04-28T08:29:32.931Z,71.56
2019-04-28T08:30:33.043Z,70.41
2019-04-28T08:31:32.928Z,69.32
2019-04-28T08:32:32.935Z,68.31
2019-04-28T08:33:33.353Z,67.08
2019-04-28T08:34:32.953Z,66.75
2019-04-28T08:35:32.867Z,67.26
2019-04-28T08:36:32.894Z,65.83
2019-04-28T08:37:32.843Z,66.00
2019-04-28T08:38:32.876Z,65.94
2019-04-28T08:39:32.818Z,64.26
2019-04-28T08:40:32.890Z,64.87
2019-04-28T08:41:32.812Z,64.03
2019-04-28T08:42:32.801Z,64.20
2019-04-28T08:43:32.776Z,62.85
2019-04-28T08:44:32.814Z,62.10
2019-04-28T08:45:32.756Z,62.60
2019-04-28T08:46:32.859Z,65.11
2019-04-28T08:47:32.735Z,62.52
2019-04-28T08:48:32.749Z,60.46
2019-04-28T08:49:32.711Z,60.13
2019-04-28T08:50:32.752Z,59.19
2019-04-28T08:51:32.701Z,60.96
2019-04-28T08:52:32.767Z,58.02
2019-04-28T08:53:32.662Z,58.43
2019-04-28T08:54:32.680Z,59.56
2019-04-28T08:55:32.639Z,58.91
2019-04-28T08:56:32.724Z,57.09
2019-04-28T08:57:32.618Z,57.29
2019-04-28T08:58:32.705Z,55.54
2019-04-28T08:59:32.601Z,53.72
2019-04-28T09:00:32.620Z,58.23
2019-04-28T09:01:32.586Z,56.78
2019-04-28T09:02:32.632Z,55.94
2019-04-28T09:03:32.551Z,55.21
2019-04-28T09:04:32.647Z,55.82
2019-04-28T09:05:32.530Z,54.08
2019-04-28T09:06:32.586Z,57.51
2019-04-28T09:07:32.506Z,57.71
2019-04-28T09:08:32.570Z,54.89
2019-04-28T09:09:32.486Z,55.04
2019-04-28T09:10:32.583Z,55.07
2019-04-28T09:11:32.475Z,55.57
2019-04-28T09:12:32.498Z,56.23
2019-04-28T09:13:32.442Z,52.74
2019-04-28T09:14:32.512Z,52.84
2019-04-28T09:15:32.417Z,53.32
2019-04-28T09:16:32.453Z,53.50
2019-04-28T09:17:32.395Z,52.69
2019-04-28T09:18:32.476Z,50.27
2019-04-28T09:19:32.374Z,51.31
2019-04-28T09:20:32.447Z,50.80
2019-04-28T09:21:32.368Z,51.91
2019-04-28T09:22:32.357Z,54.23
2019-04-28T09:23:32.328Z,52.72
2019-04-28T09:24:32.370Z,51.56
2019-04-28T09:25:32.310Z,55.01
2019-04-28T09:26:32.419Z,53.67
2019-04-28T09:27:32.286Z,53.38
2019-04-28T09:28:32.312Z,53.42
2019-04-28T09:29:32.261Z,53.78
2019-04-28T09:30:32.315Z,54.69
2019-04-28T09:31:32.251Z,54.38
2019-04-28T09:32:32.325Z,53.98
2019-04-28T09:33:32.217Z,53.80
2019-04-28T09:34:32.236Z,56.66
2019-04-28T09:35:32.195Z,56.86
2019-04-28T09:36:36.687Z,56.76
2019-04-28T09:37:32.174Z,56.96
2019-04-28T09:38:49.167Z,57.65
2019-04-28T09:39:32.151Z,57.75
2019-04-28T09:40:40.162Z,56.26
2019-04-28T09:41:32.142Z,55.32
2019-04-28T09:42:32.197Z,54.11
2019-04-28T09:43:32.106Z,56.23
2019-04-28T09:44:33.125Z,55.93
2019-04-28T09:45:32.085Z,56.33
2019-04-28T09:46:32.145Z,56.84
2019-04-28T09:47:32.063Z,55.82
2019-04-28T09:48:32.126Z,56.51
2019-04-28T09:49:32.046Z,54.89
2019-04-28T09:50:32.140Z,56.27
2019-04-28T09:51:32.031Z,56.38
2019-04-28T09:52:32.049Z,53.45
2019-04-28T09:53:31.996Z,52.03
2019-04-28T09:54:32.067Z,51.56
2019-04-28T09:55:31.976Z,52.76
2019-04-28T09:56:32.012Z,53.09
2019-04-28T09:57:31.955Z,54.13
2019-04-28T09:58:31.991Z,53.65
2019-04-28T09:59:31.931Z,53.45
2019-04-28T10:00:32.005Z,56.40
2019-04-28T10:01:31.909Z,55.16
2019-04-28T10:02:31.950Z,55.77
2019-04-28T10:03:31.886Z,54.73
2019-04-28T10:04:41.399Z,53.88
2019-04-28T10:05:32.864Z,56.18
2019-04-28T10:06:31.951Z,56.40
2019-04-28T10:07:31.860Z,57.65
2019-04-28T10:08:31.853Z,58.11
2019-04-28T10:09:31.819Z,58.07
2019-04-28T10:10:31.867Z,58.89
2019-04-28T10:11:31.798Z,57.17
2019-04-28T10:12:31.913Z,55.85
2019-04-28T10:13:31.776Z,56.40
2019-04-28T10:14:31.793Z,53.88
2019-04-28T10:15:31.752Z,55.90
2019-04-28T10:16:31.764Z,56.15
2019-04-28T10:17:31.745Z,56.02
2019-04-28T10:18:31.821Z,55.82
2019-04-28T10:19:32.710Z,56.63
2019-04-28T10:20:31.734Z,55.82
2019-04-28T10:21:31.687Z,55.75
2019-04-28T10:22:36.188Z,54.05
2019-04-28T10:23:31.663Z,54.56
2019-04-28T10:24:32.681Z,57.22
2019-04-28T10:25:31.644Z,57.83
2019-04-28T10:26:31.669Z,58.11
2019-04-28T10:27:31.635Z,56.41
2019-04-28T10:28:32.711Z,57.86
2019-04-28T10:29:33.013Z,58.39
2019-04-28T10:30:32.622Z,58.31
2019-04-28T10:31:31.575Z,59.05
2019-04-28T10:32:31.640Z,59.26
2019-04-28T10:33:31.567Z,59.39
2019-04-28T10:34:31.624Z,59.59
2019-04-28T10:35:31.531Z,59.59
2019-04-28T10:36:31.533Z,60.40
2019-04-28T10:37:31.522Z,58.80
2019-04-28T10:38:31.552Z,60.50
2019-04-28T10:39:31.491Z,59.39
2019-04-28T10:40:31.561Z,60.53
2019-04-28T10:41:31.469Z,61.57
2019-04-28T10:42:31.506Z,61.78
2019-04-28T10:43:31.443Z,59.84
2019-04-28T10:44:31.488Z,61.17
2019-04-28T10:45:31.427Z,60.69
2019-04-28T10:46:31.500Z,61.07
2019-04-28T10:47:31.417Z,60.97
2019-04-28T10:48:31.411Z,61.78
2019-04-28T10:49:31.379Z,60.89
2019-04-28T10:50:32.458Z,60.89
2019-04-28T10:51:31.355Z,60.76
2019-04-28T10:52:31.471Z,60.66
2019-04-28T10:53:31.333Z,62.29
2019-04-28T10:54:31.350Z,60.94
2019-04-28T10:55:31.311Z,60.36
2019-04-28T10:56:31.363Z,62.29
2019-04-28T10:57:31.322Z,60.33
2019-04-28T10:58:31.379Z,61.07
2019-04-28T10:59:31.267Z,60.60
2019-04-28T11:00:31.287Z,60.13
2019-04-28T11:01:31.243Z,61.01
2019-04-28T11:02:31.305Z,61.59
2019-04-28T11:03:31.240Z,60.65
2019-04-28T11:04:31.319Z,61.39
2019-04-28T11:05:31.200Z,60.30
2019-04-28T11:06:32.252Z,60.53
2019-04-28T11:07:31.179Z,60.53
2019-04-28T11:08:34.757Z,62.16
2019-04-28T11:09:31.159Z,62.66
2019-04-28T11:10:32.177Z,60.40
2019-04-28T11:11:31.134Z,62.56
2019-04-28T11:12:31.166Z,61.55
2019-04-28T11:13:31.129Z,60.50
2019-04-28T11:14:31.185Z,61.17
2019-04-28T11:15:31.092Z,61.91
2019-04-28T11:16:32.115Z,62.52
2019-04-28T11:17:31.069Z,64.15
2019-04-28T11:18:31.137Z,62.41
2019-04-28T11:19:31.047Z,63.06
2019-04-28T11:20:31.125Z,59.93
2019-04-28T11:21:31.027Z,59.05
2019-04-28T11:22:31.032Z,61.99
2019-04-28T11:23:31.032Z,61.31
2019-04-28T11:24:31.055Z,61.44
2019-04-28T11:25:30.993Z,62.16
2019-04-28T11:26:31.060Z,62.66
2019-04-28T11:27:30.961Z,62.80
2019-04-28T11:28:31.002Z,64.97
2019-04-28T11:29:30.955Z,66.06
2019-04-28T11:30:39.687Z,66.80
2019-04-28T11:31:31.656Z,68.37
2019-04-28T11:32:30.998Z,68.63
2019-04-28T11:33:30.933Z,69.45
2019-04-28T11:34:30.936Z,70.88
2019-04-28T11:35:30.867Z,70.98
2019-04-28T11:36:30.938Z,71.73
2019-04-28T11:37:30.844Z,70.27
2019-04-28T11:38:30.865Z,71.63
2019-04-28T11:39:30.822Z,71.77
2019-04-28T11:40:30.845Z,74.66
2019-04-28T11:41:30.800Z,75.31
2019-04-28T11:42:30.862Z,76.75
2019-04-28T11:43:30.793Z,76.64
2019-04-28T11:44:30.926Z,77.39
2019-04-28T11:45:30.754Z,78.49
2019-04-28T11:46:30.786Z,76.64
2019-04-28T11:47:30.731Z,75.04
2019-04-28T11:48:30.834Z,75.35
2019-04-28T11:49:30.722Z,72.82
2019-04-28T11:50:32.762Z,75.24
2019-04-28T11:51:30.685Z,76.78
2019-04-28T11:52:37.689Z,74.39
2019-04-28T11:53:30.678Z,75.38
2019-04-28T11:54:32.684Z,75.31
2019-04-28T11:55:30.643Z,74.56
2019-04-28T11:56:40.785Z,71.91
2019-04-28T11:57:31.616Z,74.38
2019-04-28T11:58:30.699Z,72.00
2019-04-28T11:59:30.600Z,72.75
2019-04-28T12:00:30.680Z,71.60
2019-04-28T12:01:30.573Z,71.06
2019-04-28T12:02:30.592Z,69.19
2019-04-28T12:03:30.566Z,67.91
2019-04-28T12:04:30.610Z,69.20
2019-04-28T12:05:34.690Z,66.29
2019-04-28T12:06:30.616Z,66.80
2019-04-28T12:07:30.505Z,68.39
2019-04-28T12:08:30.559Z,66.83
2019-04-28T12:09:30.483Z,66.83
2019-04-28T12:10:30.543Z,65.21
2019-04-28T12:11:30.460Z,65.52
2019-04-28T12:12:30.555Z,66.74
2019-04-28T12:13:30.459Z,64.61
2019-04-28T12:14:30.469Z,62.88
2019-04-28T12:15:30.415Z,62.40
2019-04-28T12:16:30.478Z,61.18
2019-04-28T12:17:30.399Z,61.93
2019-04-28T12:18:30.424Z,61.01
2019-04-28T12:19:30.373Z,62.87
2019-04-28T12:20:30.406Z,64.06
2019-04-28T12:21:30.350Z,63.65
2019-04-28T12:22:30.418Z,62.74
2019-04-28T12:23:30.328Z,58.37
2019-04-28T12:24:30.363Z,58.50
2019-04-28T12:25:30.311Z,58.91
2019-04-28T12:26:30.343Z,60.05
2019-04-28T12:27:30.286Z,59.54
2019-04-28T12:28:30.360Z,60.31
2019-04-28T12:29:30.277Z,60.75
2019-04-28T12:30:30.271Z,63.29
2019-04-28T12:31:30.240Z,62.78
2019-04-28T12:32:30.282Z,64.69
2019-04-28T12:33:30.222Z,62.68
2019-04-28T12:34:32.274Z,62.85
2019-04-28T12:35:30.201Z,60.92
2019-04-28T12:36:32.255Z,62.58
2019-04-28T12:37:30.173Z,63.67
2019-04-28T12:38:32.269Z,62.75
2019-04-28T12:39:30.168Z,62.68
2019-04-28T12:40:31.159Z,64.89
2019-04-28T12:41:30.127Z,64.28
2019-04-28T12:42:30.147Z,65.70
2019-04-28T12:43:30.107Z,65.16
2019-04-28T12:44:30.194Z,68.52
2019-04-28T12:45:35.214Z,65.67
2019-04-28T12:46:31.099Z,65.80
2019-04-28T12:47:30.059Z,66.99
2019-04-28T12:48:32.612Z,68.72
2019-04-28T12:49:30.050Z,66.18
2019-04-28T12:50:30.034Z,64.15
2019-04-28T12:51:30.015Z,63.16
2019-04-28T12:52:30.111Z,63.16